• Join FlightAware (Why Join?)
  • Login
  • US Flag 
 
01:04AM EST


 

Airport Tracker/Info


-or-


 

Live Flight TrackerFlight Track Log ✈ FLG3729 ✈ 28-Apr-2013 ✈ KALB - KDTW

Flight Track Log - Related Links

Times and Time Zones

All times are in EDT time to prevent confusion due to time zone crossing. See the FLG3729 flight status page for this flight to view local times or setup timezone preferences in your user account.

Time Position Orientation Groundspeed Altitude Reporting Facility
EDT Latitude Longitude Course Direction KTS MPH feet Rate Location/Type
05:50AM 42.7694 -73.8089 304° West 161 185 1,400  Level Boston Center
05:51AM 42.8317 -73.8189 353° North 224 258 3,200 2,400 Climbing Boston Center
05:53AM 42.8268 -74.2875 281° West  Level FlightAware Approximate
05:53AM 42.9244 -73.9003 327° Northwest 285 328 7,900  Level Boston Center
05:54AM 42.8465 -74.4122 283° West  Level FlightAware Approximate
05:54AM 42.9781 -73.9497 326° Northwest 270 311 10,200  Level Boston Center
05:55AM 42.8680 -74.5361 304° West  Level FlightAware Approximate
05:55AM 43.0583 -74.0314 323° Northwest 297 342 12,200  Level Boston Center
05:56AM 43.0733 -74.1511 280° West 327 376 14,100 2,280 Climbing Boston Center
05:57AM 43.0811 -74.3050 274° West 360 414 16,800 2,100 Climbing Boston Center
05:58AM 43.0858 -74.3989 274° West 367 422 18,400 1,920 Climbing Boston Center
05:59AM 43.0933 -74.5642 274° West 367 422 20,700 1,860 Climbing Boston Center
06:00AM 43.1028 -74.7294 275° West 367 422 22,900 1,620 Climbing Boston Center
06:01AM 43.1094 -74.9003 273° West 367 422 24,600 1,320 Climbing Boston Center
06:02AM 43.1150 -75.0286 273° West 372 428 25,600 1,200 Climbing Boston Center
06:03AM 43.1233 -75.2053 274° West 387 445 27,000 1,200 Climbing Boston Center
06:04AM 43.1281 -75.3533 273° West 387 445 28,000 960 Climbing Boston Center
06:05AM 43.1347 -75.5017 274° West 387 445 29,000 840 Climbing Boston Center
06:06AM 43.1408 -75.6500 273° West 392 451 29,700 480 Climbing Boston Center
06:07AM 43.1469 -75.8042 273° West 392 451 30,000 120 Climbing Boston Center
06:08AM 43.1528 -75.9581 273° West 403 464 30,000  Level Boston Center
06:09AM 43.1581 -76.1150 273° West 414 476 30,000  Level Boston Center
06:11AM 43.1497 -76.3514 267° West 431 496 30,000  Level Cleveland Center
06:12AM 43.1347 -76.5144 263° West 442 509 30,000  Level Cleveland Center
06:13AM 43.1217 -76.6775 264° West 442 509 30,000  Level Cleveland Center
06:14AM 43.1061 -76.8378 262° West 442 509 30,000  Level Cleveland Center
06:15AM 43.0906 -77.0036 263° West 442 509 30,000  Level Cleveland Center
06:16AM 43.0767 -77.1639 263° West 442 509 30,000  Level Cleveland Center
06:17AM 43.0603 -77.3239 262° West 437 503 30,000  Level Cleveland Center
06:18AM 43.0461 -77.4836 263° West 427 491 30,000  Level Cleveland Center
06:19AM 43.0294 -77.6436 262° West 427 491 30,000  Level Cleveland Center
06:20AM 43.0167 -77.8003 264° West 427 491 30,000  Level Cleveland Center
06:21AM 42.9994 -77.9603 262° West 427 491 30,000  Level Cleveland Center
06:22AM 42.9842 -78.1197 263° West 427 491 30,000  Level Cleveland Center
06:23AM 42.9686 -78.2792 262° West 427 491 30,000  Level Cleveland Center
06:24AM 42.9508 -78.4361 261° West 427 491 30,000  Level Cleveland Center
06:25AM 42.9350 -78.5953 262° West 427 491 30,000  Level Cleveland Center
06:26AM 42.9147 -78.7547 260° West 427 491 30,000  Level Cleveland Center
06:27AM 42.8919 -78.9114 259° West 427 491 30,000  Level Cleveland Center
06:28AM 42.8714 -79.0675 260° West 427 491 30,000  Level Cleveland Center
06:29AM 42.8442 -79.2239 257° West 427 491 30,000  Level Cleveland Center
06:30AM 42.8250 -79.3831 261° West 432 497 30,000  Level Cleveland Center
06:31AM 42.8014 -79.5361 258° West 427 491 30,000  Level Cleveland Center
06:32AM 42.7756 -79.6922 257° West 427 491 30,000  Level Cleveland Center
06:33AM 42.7558 -79.8422 260° West 422 486 30,000  Level Cleveland Center
06:34AM 42.7444 -80.0122 265° West 416 479 30,000 -360 Level Cleveland Center
06:35AM 42.7367 -80.1647 266° West 411 473 29,300 -900 Descending Cleveland Center
06:36AM 42.7308 -80.3175 267° West 411 473 28,300 -660 Descending Cleveland Center
06:37AM 42.7228 -80.4731 266° West 410 472 28,000 -180 Descending Cleveland Center
06:38AM 42.7186 -80.6228 268° West 410 472 28,000 -300 Level Cleveland Center
06:39AM 42.7100 -80.7753 266° West 410 472 27,400 -960 Descending Cleveland Center
06:40AM 42.7014 -80.9278 266° West 405 466 26,100 -1,260 Descending Cleveland Center
06:41AM 42.6864 -81.0775 262° West 405 466 24,900 -1,080 Descending Cleveland Center
06:42AM 42.6689 -81.2128 260° West 405 466 24,000 -960 Descending Cleveland Center
06:43AM 42.6514 -81.3650 261° West 410 472 23,000 -1,200 Descending Cleveland Center
06:44AM 42.6358 -81.5061 262° West 402 463 21,600 -1,440 Descending Cleveland Center
06:45AM 42.6178 -81.6525 261° West 393 452 20,200 -1,500 Descending Cleveland Center
06:46AM 42.5997 -81.7933 260° West 393 452 18,700 -1,380 Descending Cleveland Center
06:47AM 42.5836 -81.9339 261° West 393 452 17,500 -1,200 Descending Cleveland Center
06:48AM 42.5653 -82.0717 260° West 387 445 16,300 -1,260 Descending Cleveland Center
06:49AM 42.5531 -82.2067 263° West 360 414 15,100 -1,260 Descending Cleveland Center
06:49AM 42.5389 -82.3078 259° West 352 405 14,200 -1,200 Descending Cleveland Center
06:50AM 42.5322 -82.3328 250° West 367 422 13,900 -1,200 Descending Cleveland Center
06:50AM 42.5225 -82.4228 262° West 337 388 13,100 -1,200 Descending Cleveland Center
06:51AM 42.5178 -82.4564 259° West 355 409 12,700 -1,140 Descending Cleveland Center
06:51AM 42.5058 -82.5492 260° West 337 388 12,000 -720 Descending Cleveland Center
06:52AM 42.4928 -82.5797 240° Southwest 350 403 12,000 -540 Level Cleveland Center
06:52AM 42.4686 -82.6578 247° West 297 342 11,500 -1,020 Descending Cleveland Center
06:53AM 42.4597 -82.6800 242° Southwest 328 377 11,000 -1,800 Descending Cleveland Center
06:53AM 42.4378 -82.7494 247° West 281 323 9,700 -1,800 Descending Cleveland Center
06:54AM 42.4289 -82.7803 249° West 308 354 9,200 -1,800 Descending Cleveland Center
06:54AM 42.4253 -82.8531 266° West 274 315 7,900 -1,920 Descending Cleveland Center
06:55AM 42.4247 -82.8814 268° West 285 328 7,300 -1,440 Descending Cleveland Center
06:56AM 42.4186 -82.9822 265° West 274 315 6,000 -780 Descending Cleveland Center
06:56AM 42.4147 -83.0553 266° West 273 314 6,000 -420 Level Cleveland Center
06:57AM 42.4122 -83.0861 264° West 274 315 5,600 -1,560 Descending Cleveland Center
06:57AM 42.3978 -83.1700 257° West 245 282 4,300 -960 Descending Cleveland Center
06:58AM 42.3589 -83.2331 230° Southwest 186 214 3,900 -720 Descending Cleveland Center
06:59AM 42.3142 -83.2647 208° Southwest 173 199 2,900 -900 Descending Cleveland Center
07:00AM 42.2844 -83.2861 208° Southwest 127 146 2,200 -780 Descending Cleveland Center